Time;durP1;ratioP1;P1;durP2;ratioP2;P2;SDS_P1;SDS_P2;PMS_P1;PMS_P2;Temp;Humidity;BMP_temperature;BMP_pressure;BME280_temperature;BME280_humidity;BME280_pressure;Samples;Min_cycle;Max_cycle;Signal;HPM_P1;HPM_P2
2022/04/12 00:00:33;;;;;;;7.30;5.03;;;;;;;3.09;52.88;95901.47;5105502;28;20055;-70
2022/04/12 00:02:58;;;;;;;7.57;4.82;;;;;;;3.09;53.40;95904.13;5104195;28;20024;-70
2022/04/12 00:05:24;;;;;;;7.80;4.50;;;;;;;3.07;53.73;95900.78;5103654;28;20027;-69
2022/04/12 00:07:49;;;;;;;10.10;5.13;;;;;;;3.08;54.05;95905.09;5105638;28;20039;-70
2022/04/12 00:10:15;;;;;;;6.60;4.55;;;;;;;3.09;53.80;95901.47;5104589;28;20023;-70
2022/04/12 00:12:41;;;;;;;7.07;4.68;;;;;;;3.05;53.97;95899.19;5105357;28;20406;-70
2022/04/12 00:15:08;;;;;;;8.43;4.65;;;;;;;3.04;53.74;95893.06;5104948;28;20344;-71
2022/04/12 00:20:18;;;;;;;5.57;3.90;;;;;;;3.01;53.70;95893.31;5105649;28;20492;-71
2022/04/12 00:22:44;;;;;;;7.25;4.18;;;;;;;3.00;53.69;95888.13;5104571;28;20405;-70
2022/04/12 00:25:10;;;;;;;7.50;4.55;;;;;;;2.97;53.37;95890.03;5105740;28;20016;-70
2022/04/12 00:27:37;;;;;;;5.22;4.20;;;;;;;2.99;54.12;95891.72;5104308;28;20535;-70
2022/04/12 00:30:06;;;;;;;4.93;4.00;;;;;;;2.96;54.51;95887.50;5105075;28;20027;-70
2022/04/12 00:32:33;;;;;;;7.10;4.15;;;;;;;3.01;53.62;95882.69;5104775;28;20471;-70
2022/04/12 00:34:58;;;;;;;7.53;4.35;;;;;;;2.99;53.65;95881.13;5103486;28;20024;-70
2022/04/12 00:37:24;;;;;;;5.45;4.03;;;;;;;2.98;53.13;95880.28;5104174;28;20020;-69
2022/04/12 00:39:49;;;;;;;7.63;4.20;;;;;;;2.92;53.21;95878.94;5104542;28;20031;-70
2022/04/12 00:42:15;;;;;;;5.70;4.43;;;;;;;2.78;54.18;95874.72;5105652;28;20035;-70
2022/04/12 00:44:40;;;;;;;6.95;3.90;;;;;;;2.80;53.88;95872.81;5104524;28;20028;-69
2022/04/12 00:47:05;;;;;;;5.50;4.05;;;;;;;2.79;53.88;95876.38;5105154;28;20489;-69
2022/04/12 00:49:31;;;;;;;5.50;4.05;;;;;;;2.89;53.35;95865.94;5104471;28;20034;-70
2022/04/12 00:51:56;;;;;;;5.70;4.20;;;;;;;2.98;53.03;95864.41;5104911;28;20027;-71
2022/04/12 00:54:23;;;;;;;5.35;4.15;;;;;;;3.05;52.13;95876.19;5103359;28;20027;-70
2022/04/12 00:56:50;;;;;;;6.18;4.38;;;;;;;3.09;52.13;95871.50;5104998;28;20024;-70
2022/04/12 00:59:16;;;;;;;8.48;3.88;;;;;;;3.13;51.77;95872.13;5103957;28;20031;-70
2022/04/12 01:01:41;;;;;;;6.25;3.95;;;;;;;3.09;51.94;95872.31;5104529;28;20080;-70
2022/04/12 01:04:07;;;;;;;5.30;3.95;;;;;;;3.18;51.71;95875.22;5105035;28;20397;-70
2022/04/12 01:06:32;;;;;;;5.53;3.78;;;;;;;3.27;51.21;95869.22;5105608;28;20027;-70
2022/04/12 01:08:58;;;;;;;7.35;4.30;;;;;;;3.24;51.57;95874.75;5108861;28;20027;-70
2022/04/12 01:11:23;;;;;;;6.32;4.50;;;;;;;3.15;51.26;95864.88;5107046;28;20026;-70
2022/04/12 01:13:48;;;;;;;6.80;4.20;;;;;;;3.17;51.81;95876.19;5107471;28;20501;-70
2022/04/12 01:16:15;;;;;;;6.20;4.10;;;;;;;3.17;51.82;95874.41;5108649;28;20390;-70
2022/04/12 01:18:40;;;;;;;4.80;3.80;;;;;;;3.15;51.81;95871.00;5108351;28;20562;-70
2022/04/12 01:21:06;;;;;;;6.30;4.38;;;;;;;3.14;52.55;95864.03;5108629;28;20028;-70
2022/04/12 01:23:34;;;;;;;7.22;4.03;;;;;;;3.14;52.12;95864.03;5106574;28;20035;-70
2022/04/12 01:25:59;;;;;;;6.82;4.03;;;;;;;3.26;51.52;95867.50;5090455;28;20401;-70
2022/04/12 01:28:25;;;;;;;5.53;4.13;;;;;;;3.25;50.83;95860.53;5107718;28;20035;-70
2022/04/12 01:30:51;;;;;;;5.55;4.05;;;;;;;3.29;51.68;95859.31;5108377;28;20642;-70
2022/04/12 01:33:16;;;;;;;8.38;4.40;;;;;;;3.33;50.84;95859.94;5107781;28;20032;-71
2022/04/12 01:35:42;;;;;;;7.10;4.20;;;;;;;3.20;51.45;95862.69;5106817;28;20034;-69
2022/04/12 01:38:07;;;;;;;5.43;3.72;;;;;;;3.11;51.60;95868.72;5108069;28;20047;-70
2022/04/12 01:40:33;;;;;;;6.40;4.15;;;;;;;3.07;51.82;95866.31;5107900;28;20024;-70
2022/04/12 01:42:58;;;;;;;6.93;4.50;;;;;;;3.08;51.74;95860.03;5109077;28;20023;-70
2022/04/12 01:45:26;;;;;;;9.23;4.22;;;;;;;3.01;52.36;95864.16;5107012;28;20012;-70
2022/04/12 01:47:52;;;;;;;6.63;4.13;;;;;;;2.88;53.11;95863.41;5108175;28;20039;-70
2022/04/12 01:50:18;;;;;;;7.07;4.65;;;;;;;2.77;53.42;95866.88;5107298;28;20045;-69
2022/04/12 01:52:43;;;;;;;7.82;4.75;;;;;;;2.67;54.95;95864.94;5108011;28;20028;-69
2022/04/12 01:55:09;;;;;;;6.55;4.70;;;;;;;2.65;54.63;95866.84;5106671;28;20089;-70
2022/04/12 01:57:34;;;;;;;6.15;5.05;;;;;;;2.62;54.15;95858.28;5106263;28;20035;-70
2022/04/12 02:00:00;;;;;;;8.40;4.43;;;;;;;2.63;54.19;95862.66;5108210;28;20035;-69
2022/04/12 02:02:25;;;;;;;8.15;4.78;;;;;;;2.68;53.19;95865.78;5105676;28;20101;-70
2022/04/12 02:04:50;;;;;;;6.15;4.60;;;;;;;2.68;53.13;95863.13;5106506;28;20057;-70
2022/04/12 02:07:16;;;;;;;6.97;4.20;;;;;;;2.62;53.71;95864.44;5106990;28;20020;-71
2022/04/12 02:09:41;;;;;;;6.25;4.47;;;;;;;2.56;53.71;95860.44;5107702;28;20040;-70
2022/04/12 02:12:07;;;;;;;7.72;4.78;;;;;;;2.51;54.14;95859.97;5107299;28;20027;-70
2022/04/12 02:14:33;;;;;;;6.50;4.28;;;;;;;2.48;54.29;95860.22;5107222;28;20459;-70
2022/04/12 02:16:58;;;;;;;12.05;4.53;;;;;;;2.34;54.32;95867.38;5106410;28;20027;-69
2022/04/12 02:19:24;;;;;;;9.10;4.65;;;;;;;2.30;54.44;95858.00;5105546;28;20023;-72
2022/04/12 02:21:49;;;;;;;10.63;5.00;;;;;;;2.22;54.53;95852.41;5107880;28;20073;-70
2022/04/12 02:24:14;;;;;;;7.70;4.57;;;;;;;2.17;54.29;95859.84;5106345;28;20375;-70
2022/04/12 02:26:40;;;;;;;8.88;5.13;;;;;;;2.02;55.39;95860.03;5107589;28;20486;-69
2022/04/12 02:29:06;;;;;;;5.38;3.95;;;;;;;1.96;55.85;95847.25;5107039;28;20063;-70
2022/04/12 02:31:33;;;;;;;6.75;4.55;;;;;;;1.82;56.45;95843.81;5107101;28;20096;-70
2022/04/12 02:33:58;;;;;;;8.77;4.40;;;;;;;1.77;56.68;95847.75;5107175;28;20020;-70
2022/04/12 02:36:23;;;;;;;9.18;6.63;;;;;;;1.67;56.63;95847.59;5106475;28;20019;-69
2022/04/12 02:38:49;;;;;;;9.75;4.80;;;;;;;1.77;56.99;95853.91;5105930;28;20054;-70
2022/04/12 02:41:14;;;;;;;9.07;4.82;;;;;;;1.78;56.26;95852.09;5106634;28;20121;-70
2022/04/12 02:43:40;;;;;;;11.75;4.50;;;;;;;1.80;55.92;95856.31;5107192;28;20019;-70
2022/04/12 02:46:05;;;;;;;8.50;4.53;;;;;;;1.72;56.04;95851.59;5106440;28;20039;-70
2022/04/12 02:48:30;;;;;;;7.30;4.95;;;;;;;1.62;57.65;95861.13;5106744;28;20024;-70
2022/04/12 02:50:56;;;;;;;9.65;4.80;;;;;;;1.56;57.70;95858.94;5106294;28;20478;-70
2022/04/12 02:53:21;;;;;;;9.55;4.93;;;;;;;1.46;57.20;95856.97;5106703;28;20035;-70
2022/04/12 02:55:47;;;;;;;8.70;5.15;;;;;;;1.51;56.87;95859.28;5107015;28;20027;-70
2022/04/12 02:58:12;;;;;;;6.68;4.40;;;;;;;1.46;56.68;95848.19;5104802;28;20023;-70
2022/04/12 03:00:38;;;;;;;6.50;4.43;;;;;;;1.48;56.39;95856.84;5106884;28;20035;-70
2022/04/12 03:03:03;;;;;;;12.30;4.50;;;;;;;1.51;56.67;95859.28;5105695;28;20031;-69
2022/04/12 03:05:29;;;;;;;10.43;4.80;;;;;;;1.51;56.83;95853.13;5106556;28;20030;-70
2022/04/12 03:07:54;;;;;;;7.25;5.03;;;;;;;1.48;57.13;95855.03;5105780;28;20108;-69
2022/04/12 03:10:20;;;;;;;8.15;4.82;;;;;;;1.45;57.28;95860.53;5106934;28;20027;-70
2022/04/12 03:12:45;;;;;;;10.90;4.82;;;;;;;1.47;57.19;95863.94;5106055;28;20458;-70
2022/04/12 03:15:10;;;;;;;9.10;5.60;;;;;;;1.54;57.62;95861.69;5106158;28;20028;-69
2022/04/12 03:17:36;;;;;;;7.35;5.20;;;;;;;1.60;56.48;95863.03;5106192;28;20475;-70
2022/04/12 03:20:02;;;;;;;10.73;5.95;;;;;;;1.55;57.05;95858.09;5105562;28;20039;-70
2022/04/12 03:22:27;;;;;;;8.18;5.75;;;;;;;1.54;57.07;95863.47;5105277;28;20039;-71
2022/04/12 03:24:53;;;;;;;17.55;12.27;;;;;;;1.53;57.31;95861.81;5105210;28;20035;-69
2022/04/12 03:27:18;;;;;;;18.27;12.18;;;;;;;1.46;57.54;95864.03;5106287;28;20031;-69
2022/04/12 03:29:44;;;;;;;10.38;7.40;;;;;;;1.42;57.79;95865.22;5104237;27;20118;-70
2022/04/12 03:32:09;;;;;;;8.65;7.22;;;;;;;1.33;58.52;95867.56;5105863;28;20024;-69
2022/04/12 03:34:36;;;;;;;11.13;7.20;;;;;;;1.30;58.67;95878.34;5104344;28;20031;-70
2022/04/12 03:37:01;;;;;;;9.82;6.68;;;;;;;1.31;58.57;95873.91;5105569;28;20034;-69
2022/04/12 03:39:27;;;;;;;9.35;5.55;;;;;;;1.27;58.11;95870.66;5106059;28;20047;-70
2022/04/12 03:41:52;;;;;;;7.55;5.28;;;;;;;1.26;57.83;95868.94;5105014;28;20027;-69
2022/04/12 03:44:18;;;;;;;8.52;5.25;;;;;;;1.24;58.13;95873.50;5105826;28;20050;-70
2022/04/12 03:46:43;;;;;;;9.30;6.25;;;;;;;1.24;58.03;95873.50;5104799;28;20183;-70
2022/04/12 03:49:10;;;;;;;11.77;6.57;;;;;;;1.20;58.21;95874.66;5105684;28;20027;-70
2022/04/12 03:51:36;;;;;;;12.48;6.00;;;;;;;1.09;58.08;95878.91;5105648;28;20027;-69
2022/04/12 03:54:02;;;;;;;15.00;5.85;;;;;;;1.13;58.72;95873.41;5104167;28;20031;-70
2022/04/12 03:56:28;;;;;;;12.45;6.15;;;;;;;1.09;59.94;95876.28;5106005;28;20035;-70
2022/04/12 03:58:53;;;;;;;11.15;5.95;;;;;;;1.10;58.73;95883.25;5104969;28;20027;-69
2022/04/12 04:01:19;;;;;;;10.15;8.10;;;;;;;1.11;59.31;95878.81;5105965;28;20080;-69
2022/04/12 04:03:44;;;;;;;13.95;6.75;;;;;;;1.10;58.11;95880.59;5104607;28;20051;-70
2022/04/12 04:06:11;;;;;;;16.55;6.90;;;;;;;1.10;58.56;95877.94;5105680;28;20593;-69
2022/04/12 04:08:36;;;;;;;14.02;7.22;;;;;;;1.16;59.57;95878.47;5105192;28;20073;-70
2022/04/12 04:11:02;;;;;;;15.27;7.88;;;;;;;1.25;59.04;95877.84;5103742;28;20051;-70
2022/04/12 04:13:30;;;;;;;12.15;7.07;;;;;;;1.29;58.29;95881.94;5105419;28;20027;-70
2022/04/12 04:15:56;;;;;;;12.85;7.10;;;;;;;1.24;58.67;95894.66;5104811;28;20056;-70
2022/04/12 04:18:21;;;;;;;13.65;7.20;;;;;;;1.21;59.28;95895.69;5105618;28;20084;-71
2022/04/12 04:20:47;;;;;;;14.07;6.80;;;;;;;1.14;58.66;95883.88;5104275;28;20464;-71
2022/04/12 04:23:12;;;;;;;11.80;7.45;;;;;;;1.21;58.54;95886.94;5105453;28;20463;-69
2022/04/12 04:25:38;;;;;;;12.68;7.32;;;;;;;1.26;58.54;95886.63;5104808;28;20039;-73
2022/04/12 04:28:05;;;;;;;13.77;7.07;;;;;;;1.34;57.77;95892.19;5105073;28;20032;-71
2022/04/12 04:30:33;;;;;;;13.15;6.53;;;;;;;1.45;57.77;95899.38;5086799;28;20416;-73
2022/04/12 04:32:59;;;;;;;12.70;6.78;;;;;;;1.65;57.13;95899.72;5104773;28;20050;-70
2022/04/12 04:35:25;;;;;;;12.00;7.05;;;;;;;1.77;57.17;95898.88;5105913;28;20462;-70
2022/04/12 04:37:50;;;;;;;24.73;7.90;;;;;;;1.95;57.12;95909.06;5104247;28;20019;-73
2022/04/12 04:40:20;;;;;;;19.65;7.78;;;;;;;2.15;56.57;95902.31;5105664;28;20050;-70
2022/04/12 04:42:46;;;;;;;24.88;12.73;;;;;;;2.33;55.77;95912.50;5106613;28;20024;-70
2022/04/12 04:45:12;;;;;;;16.27;8.48;;;;;;;2.50;56.03;95919.16;5109206;28;20027;-70
2022/04/12 04:47:52;;;;;;;13.82;8.75;;;;;;;2.74;55.12;95915.63;5107421;28;20463;-70
2022/04/12 04:50:18;;;;;;;14.43;9.35;;;;;;;2.95;53.87;95918.44;5108971;28;20474;-71
2022/04/12 04:52:44;;;;;;;16.25;8.85;;;;;;;3.12;53.00;95924.28;5109226;28;20144;-70
2022/04/12 04:55:09;;;;;;;14.23;9.98;;;;;;;3.28;52.37;95923.94;5108155;28;20475;-70
2022/04/12 04:57:41;;;;;;;15.68;8.50;;;;;;;3.45;51.87;95925.25;5109251;28;20035;-70
2022/04/12 05:00:08;;;;;;;16.48;8.98;;;;;;;3.57;51.71;95918.16;5108407;28;20028;-72
2022/04/12 05:02:34;;;;;;;17.02;8.40;;;;;;;3.69;52.47;95918.16;5107783;28;20066;-71
2022/04/12 05:05:00;;;;;;;14.43;8.25;;;;;;;3.90;52.15;95917.38;5106949;28;20482;-70
2022/04/12 05:07:26;;;;;;;14.77;7.93;;;;;;;4.03;51.01;95923.38;5108758;28;20021;-70
2022/04/12 05:09:52;;;;;;;10.93;7.70;;;;;;;4.19;50.65;95917.66;5108821;28;20038;-69
2022/04/12 05:12:18;;;;;;;13.15;8.07;;;;;;;4.37;50.25;95924.28;5108244;28;20039;-70
2022/04/12 05:14:43;;;;;;;13.10;7.30;;;;;;;4.45;50.67;95921.81;5109227;28;20028;-70
2022/04/12 05:17:08;;;;;;;14.85;7.07;;;;;;;4.63;50.48;95923.91;5107815;28;20441;-69
2022/04/12 05:19:34;;;;;;;13.18;6.97;;;;;;;4.82;50.00;95924.06;5108976;28;20403;-70
2022/04/12 05:21:59;;;;;;;11.68;6.78;;;;;;;5.02;49.95;95916.22;5107829;28;20036;-70
2022/04/12 05:24:25;;;;;;;11.25;7.38;;;;;;;5.24;49.34;95910.88;5107569;28;20422;-71
2022/04/12 05:26:50;;;;;;;14.45;8.07;;;;;;;5.41;48.62;95917.41;5108266;28;20471;-70
2022/04/12 05:29:16;;;;;;;15.70;6.90;;;;;;;5.59;47.59;95922.09;5108091;28;20027;-69
2022/04/12 05:31:41;;;;;;;11.13;6.28;;;;;;;5.81;46.36;95918.41;5108649;28;20027;-70
2022/04/12 05:34:07;;;;;;;10.65;6.32;;;;;;;5.86;47.12;95920.66;5107575;28;20072;-71
2022/04/12 05:36:32;;;;;;;16.67;6.80;;;;;;;6.04;46.72;95916.41;5108764;28;20019;-70
2022/04/12 05:38:58;;;;;;;16.98;7.15;;;;;;;6.20;46.38;95923.03;5107331;28;20089;-70
2022/04/12 05:41:23;;;;;;;10.95;6.88;;;;;;;6.37;46.02;95915.31;5108259;28;20024;-68
2022/04/12 05:43:48;;;;;;;8.90;6.13;;;;;;;6.54;45.26;95911.97;5107861;28;20401;-70
2022/04/12 05:46:14;;;;;;;12.63;6.90;;;;;;;6.68;44.95;95917.84;5108042;28;20482;-70
2022/04/12 05:48:39;;;;;;;11.32;6.82;;;;;;;7.03;44.86;95915.56;5107957;28;20488;-73
2022/04/12 05:51:05;;;;;;;11.32;6.55;;;;;;;7.08;44.93;95909.84;5107668;28;20105;-70
2022/04/12 05:53:30;;;;;;;10.02;6.70;;;;;;;7.23;44.05;95907.53;5106829;28;20031;-71
2022/04/12 05:55:56;;;;;;;9.27;7.03;;;;;;;7.31;44.37;95913.00;5107414;28;20043;-70
2022/04/12 05:58:21;;;;;;;16.80;7.28;;;;;;;7.40;43.96;95914.78;5106498;28;20443;-70
2022/04/12 06:00:47;;;;;;;11.18;7.22;;;;;;;7.63;43.84;95921.59;5107277;28;20478;-71
2022/04/12 06:03:12;;;;;;;12.10;7.30;;;;;;;7.73;43.75;95914.41;5106225;28;20486;-71
2022/04/12 06:05:37;;;;;;;11.15;8.52;;;;;;;7.86;43.64;95923.91;5107497;28;20050;-69
2022/04/12 06:08:03;;;;;;;9.77;7.30;;;;;;;7.89;43.86;95918.25;5107591;28;20015;-70
2022/04/12 06:10:29;;;;;;;15.68;14.27;;;;;;;8.07;43.12;95930.81;5107450;28;20619;-71
2022/04/12 06:12:54;;;;;;;15.52;11.13;;;;;;;8.25;43.02;95918.31;5107400;28;20374;-70
2022/04/12 06:15:20;;;;;;;13.05;7.38;;;;;;;8.33;42.97;95924.75;5107708;28;20019;-70
2022/04/12 06:17:45;;;;;;;13.38;7.85;;;;;;;8.60;42.69;95925.72;5106639;28;20365;-70
2022/04/12 06:20:12;;;;;;;11.43;7.30;;;;;;;8.78;42.46;95926.59;5107559;28;20024;-70
2022/04/12 06:22:38;;;;;;;12.10;6.78;;;;;;;8.89;41.65;95921.97;5106731;28;20159;-69
2022/04/12 06:25:04;;;;;;;11.52;6.65;;;;;;;8.98;42.07;95933.59;5105990;28;20080;-70
2022/04/12 06:27:40;;;;;;;10.63;6.20;;;;;;;9.17;41.32;95929.91;5105887;28;20031;-70
2022/04/12 06:30:07;;;;;;;9.93;5.93;;;;;;;9.24;40.81;95933.63;5106796;28;20038;-70
2022/04/12 06:32:33;;;;;;;11.52;6.07;;;;;;;9.40;41.82;95932.03;5107596;28;20020;-69
2022/04/12 06:34:58;;;;;;;10.48;6.72;;;;;;;9.37;41.57;95933.22;5106523;28;20035;-71
2022/04/12 06:37:25;;;;;;;14.15;8.52;;;;;;;9.49;41.35;95933.81;5107631;28;20538;-71
2022/04/12 06:39:51;;;;;;;17.40;7.47;;;;;;;9.62;41.20;95929.84;5106291;28;20048;-71
2022/04/12 06:42:16;;;;;;;10.20;7.57;;;;;;;9.74;41.67;95933.94;5107201;28;20020;-69
2022/04/12 06:44:41;;;;;;;11.27;8.15;;;;;;;9.84;40.50;95941.84;5106731;28;20051;-71
2022/04/12 06:47:07;;;;;;;9.95;8.02;;;;;;;9.94;40.70;95936.38;5106790;28;20478;-70
2022/04/12 06:49:33;;;;;;;13.82;8.18;;;;;;;9.99;41.48;95928.69;5106875;28;20437;-70
2022/04/12 06:51:59;;;;;;;10.52;9.15;;;;;;;10.18;41.14;95924.06;5106168;28;20032;-71
2022/04/12 06:54:25;;;;;;;13.27;8.02;;;;;;;10.31;41.34;95928.13;5106927;28;20512;-71
2022/04/12 06:56:50;;;;;;;12.13;7.88;;;;;;;10.39;40.58;95914.75;5106172;28;20572;-69
2022/04/12 06:59:16;;;;;;;10.50;7.03;;;;;;;10.53;39.82;95923.19;5106710;28;20606;-69
2022/04/12 07:01:41;;;;;;;11.65;7.68;;;;;;;10.72;39.87;95917.50;5105643;28;20089;-69
2022/04/12 07:04:07;;;;;;;7.90;6.50;;;;;;;10.85;38.82;95911.66;5106258;28;20083;-70
2022/04/12 07:06:32;;;;;;;9.77;6.72;;;;;;;11.02;40.09;95908.13;5106751;28;20027;-72
2022/04/12 07:08:58;;;;;;;12.38;6.97;;;;;;;11.16;38.54;95917.34;5105816;28;20043;-70
2022/04/12 07:11:24;;;;;;;11.82;6.35;;;;;;;11.22;38.04;95919.38;5106878;28;20023;-70
2022/04/12 07:13:49;;;;;;;9.00;4.57;;;;;;;11.37;36.70;95912.31;5105830;28;20449;-71
2022/04/12 07:16:14;;;;;;;7.40;4.53;;;;;;;11.45;36.69;95908.75;5106855;28;20034;-70
2022/04/12 07:18:41;;;;;;;8.25;5.55;;;;;;;11.45;37.39;95903.38;5105842;28;20401;-71
2022/04/12 07:21:07;;;;;;;15.95;6.68;;;;;;;11.54;38.89;95909.59;5106731;28;20039;-70
2022/04/12 07:23:36;;;;;;;13.15;7.40;;;;;;;11.59;37.68;95906.41;5106047;28;20030;-70
2022/04/12 07:26:02;;;;;;;7.57;4.22;;;;;;;11.73;34.47;95915.59;5105934;28;20066;-71
2022/04/12 07:28:28;;;;;;;7.10;4.13;;;;;;;11.91;31.50;95912.69;5106434;28;20058;-70
2022/04/12 07:30:53;;;;;;;6.43;4.13;;;;;;;11.93;31.10;95915.19;5105646;28;20043;-71
2022/04/12 07:33:19;;;;;;;8.90;4.78;;;;;;;11.92;30.98;95914.34;5106575;28;20035;-71
2022/04/12 07:35:44;;;;;;;6.47;5.63;;;;;;;11.92;30.52;95908.13;5103861;28;20405;-71
2022/04/12 07:38:10;;;;;;;5.70;5.07;;;;;;;11.99;30.52;95911.81;5106131;28;20040;-69
2022/04/12 07:40:35;;;;;;;8.57;7.88;;;;;;;11.92;30.67;95916.19;5105503;28;20061;-69
2022/04/12 07:43:01;;;;;;;7.40;5.70;;;;;;;11.91;30.41;95907.31;5105808;28;20396;-71
2022/04/12 07:45:26;;;;;;;7.82;5.68;;;;;;;11.94;30.30;95895.34;5106016;28;20024;-70
2022/04/12 07:47:52;;;;;;;6.75;5.65;;;;;;;11.93;30.03;95905.25;5105289;28;20028;-70
2022/04/12 07:50:17;;;;;;;14.70;13.73;;;;;;;11.85;30.57;95910.66;5106157;28;20027;-70
2022/04/12 07:52:42;;;;;;;29.70;28.20;;;;;;;11.98;29.70;95902.91;5105072;28;20034;-70
2022/04/12 07:55:08;;;;;;;7.93;7.18;;;;;;;12.03;29.76;95901.53;5105840;28;20593;-69
2022/04/12 07:57:34;;;;;;;7.68;7.07;;;;;;;12.13;30.21;95890.59;5105240;28;20118;-70
2022/04/12 07:59:59;;;;;;;7.72;7.00;;;;;;;12.06;31.40;95899.31;5105685;28;20095;-70
2022/04/12 08:02:24;;;;;;;7.07;6.38;;;;;;;12.09;30.62;95895.50;5105386;28;20084;-70
2022/04/12 08:04:50;;;;;;;6.75;6.20;;;;;;;12.08;29.76;95891.13;5105444;28;20024;-69
2022/04/12 08:07:15;;;;;;;10.35;9.50;;;;;;;12.15;30.15;95880.50;5105514;28;20028;-70
2022/04/12 08:09:41;;;;;;;7.63;6.93;;;;;;;12.19;31.15;95881.81;5104859;28;20063;-70
2022/04/12 08:12:06;;;;;;;7.63;7.00;;;;;;;12.17;30.28;95875.78;5105757;28;20026;-71
2022/04/12 08:14:32;;;;;;;9.45;8.70;;;;;;;12.17;30.53;95873.94;5104769;28;20137;-70
2022/04/12 08:16:57;;;;;;;9.02;7.25;;;;;;;12.15;30.30;95875.97;5104975;28;20027;-69
2022/04/12 08:19:22;;;;;;;10.07;8.93;;;;;;;12.14;30.36;95871.59;5104863;28;20030;-69
2022/04/12 08:21:48;;;;;;;15.13;14.07;;;;;;;12.00;30.05;95878.53;5105277;28;20032;-70
2022/04/12 08:24:13;;;;;;;14.05;9.15;;;;;;;11.96;30.27;95878.03;5105253;28;20030;-71
2022/04/12 08:26:39;;;;;;;10.93;10.23;;;;;;;11.90;29.90;95873.34;5105593;28;20027;-70
2022/04/12 08:29:04;;;;;;;9.43;8.73;;;;;;;11.95;29.84;95873.69;5105423;28;20043;-70
2022/04/12 08:31:30;;;;;;;6.60;6.18;;;;;;;11.61;29.08;95874.78;5104950;28;20035;-70
2022/04/12 08:33:55;;;;;;;52.67;49.88;;;;;;;11.72;29.55;95884.38;5105926;28;20028;-70
2022/04/12 08:36:22;;;;;;;19.40;18.30;;;;;;;11.86;30.12;95853.22;5104311;28;20487;-69
2022/04/12 08:38:51;;;;;;;10.27;9.57;;;;;;;11.99;29.90;95864.22;5103909;28;20127;-70
2022/04/12 08:41:17;;;;;;;10.52;9.82;;;;;;;12.10;30.02;95862.22;5105167;28;20455;-71
2022/04/12 08:43:42;;;;;;;8.90;8.30;;;;;;;12.22;29.74;95860.78;5104199;28;20525;-70
2022/04/12 08:46:08;;;;;;;9.18;8.48;;;;;;;12.33;29.76;95850.66;5105436;28;20031;-71
2022/04/12 08:48:34;;;;;;;7.47;6.78;;;;;;;12.32;30.19;95854.34;5104783;28;20496;-70
2022/04/12 08:51:00;;;;;;;7.38;6.78;;;;;;;12.44;30.09;95858.31;5103691;28;20028;-70
2022/04/12 08:53:25;;;;;;;6.32;5.82;;;;;;;12.48;29.03;95837.25;5081554;28;20039;-70
2022/04/12 08:55:50;;;;;;;6.63;5.95;;;;;;;12.51;29.15;95850.34;5084226;28;20032;-70
2022/04/12 08:58:16;;;;;;;8.55;7.70;;;;;;;12.34;29.97;95847.78;5083352;28;20030;-68
2022/04/12 09:00:42;;;;;;;10.73;8.15;;;;;;;12.28;30.87;95847.66;5088461;28;20030;-68
2022/04/12 09:03:07;;;;;;;7.45;6.72;;;;;;;12.38;29.71;95837.50;5094366;28;20463;-68
2022/04/12 09:05:33;;;;;;;6.45;5.95;;;;;;;12.46;28.64;95834.75;5091192;28;20498;-68
2022/04/12 09:07:58;;;;;;;6.35;5.75;;;;;;;12.46;28.65;95826.69;5084215;28;20015;-69
2022/04/12 09:10:36;;;;;;;6.18;5.60;;;;;;;12.46;28.96;95832.06;5080518;28;20020;-69
2022/04/12 09:13:16;;;;;;;6.22;5.72;;;;;;;12.47;29.25;95823.00;5082881;28;20031;-69
2022/04/12 09:15:45;;;;;;;5.65;5.15;;;;;;;12.34;28.05;95825.44;5084825;28;20505;-70
2022/04/12 09:18:11;;;;;;;5.05;4.55;;;;;;;12.32;28.22;95819.38;5094724;28;20031;-69
2022/04/12 09:20:36;;;;;;;5.65;4.15;;;;;;;12.37;29.21;95825.06;5100085;28;20338;-68
2022/04/12 09:23:02;;;;;;;5.68;5.18;;;;;;;12.43;29.38;95813.59;5093903;28;20078;-68
2022/04/12 09:25:27;;;;;;;5.47;3.65;;;;;;;12.46;29.44;95810.53;5095279;28;20020;-68
2022/04/12 09:27:55;;;;;;;11.73;6.63;;;;;;;12.52;29.58;95816.22;5091021;28;20020;-69
2022/04/12 09:30:21;;;;;;;6.32;5.35;;;;;;;12.56;29.70;95814.84;5101852;28;20028;-69
2022/04/12 09:32:47;;;;;;;4.97;4.57;;;;;;;12.59;28.59;95798.38;5102880;28;20086;-68
2022/04/12 09:35:13;;;;;;;6.20;4.70;;;;;;;12.54;28.47;95808.81;5105528;28;20682;-69
2022/04/12 09:37:39;;;;;;;7.28;5.60;;;;;;;12.50;28.48;95808.34;5107147;28;20596;-69
2022/04/12 09:40:06;;;;;;;3.97;3.47;;;;;;;12.51;28.92;95787.66;5090374;28;20044;-68
2022/04/12 09:42:42;;;;;;;5.88;4.40;;;;;;;12.46;29.39;95799.78;5085392;28;20063;-69
2022/04/12 09:45:08;;;;;;;5.43;3.60;;;;;;;12.53;29.17;95799.06;5084819;28;20020;-68
2022/04/12 09:47:34;;;;;;;4.15;3.72;;;;;;;12.51;28.78;95795.72;5086964;28;20040;-68
2022/04/12 09:50:00;;;;;;;4.05;3.70;;;;;;;12.52;29.14;95784.78;5082149;28;20450;-68
2022/04/12 09:52:27;;;;;;;4.35;3.75;;;;;;;12.59;28.85;95784.91;5085232;28;20046;-68
2022/04/12 09:54:53;;;;;;;16.13;12.77;;;;;;;12.62;29.02;95781.84;5086048;28;20107;-69
2022/04/12 09:57:19;;;;;;;6.45;5.72;;;;;;;12.65;30.26;95770.72;5085842;28;20024;-69
2022/04/12 09:59:44;;;;;;;7.72;6.90;;;;;;;12.71;29.50;95766.47;5077572;28;20023;-68
2022/04/12 10:02:11;;;;;;;17.60;16.58;;;;;;;12.76;28.69;95763.22;5089467;28;20483;-70
2022/04/12 10:04:37;;;;;;;6.25;5.53;;;;;;;12.73;28.91;95753.66;5083849;28;20037;-69
2022/04/12 10:07:03;;;;;;;9.93;9.15;;;;;;;12.76;29.23;95758.69;5088533;28;20036;-68
2022/04/12 10:09:28;;;;;;;8.98;6.65;;;;;;;12.73;28.86;95762.56;5084774;28;20039;-68
2022/04/12 10:11:54;;;;;;;6.90;5.57;;;;;;;12.65;28.08;95751.91;5081679;28;20513;-70
2022/04/12 10:14:19;;;;;;;6.07;5.45;;;;;;;12.68;28.84;95750.69;5079288;28;20498;-69
2022/04/12 10:16:45;;;;;;;6.22;5.65;;;;;;;12.71;28.50;95729.63;5084318;28;20549;-68
2022/04/12 10:19:10;;;;;;;11.55;8.63;;;;;;;12.73;29.42;95743.72;5084722;28;20084;-69
2022/04/12 10:21:36;;;;;;;7.45;5.78;;;;;;;12.74;28.29;95728.41;5068305;28;20491;-68
2022/04/12 10:24:01;;;;;;;10.35;9.70;;;;;;;12.81;28.60;95734.75;5083974;28;20024;-68
2022/04/12 10:26:27;;;;;;;7.18;6.00;;;;;;;12.71;28.74;95735.00;5102589;28;20024;-69
2022/04/12 10:29:00;;;;;;;39.88;37.92;;;;;;;12.68;28.16;95724.63;5105363;28;20035;-69
2022/04/12 10:31:31;;;;;;;4.38;3.85;;;;;;;12.68;29.23;95723.78;5107022;28;20051;-69
2022/04/12 10:34:09;;;;;;;4.60;4.18;;;;;;;12.72;28.67;95717.00;5107799;28;20056;-69
2022/04/12 10:37:00;;;;;;;6.90;3.95;;;;;;;12.77;29.09;95713.78;5104726;28;20039;-70
2022/04/12 10:39:33;;;;;;;4.03;3.28;;;;;;;12.85;30.20;95714.50;5106440;28;20047;-70
2022/04/12 10:42:01;;;;;;;5.30;4.22;;;;;;;12.95;28.73;95708.84;5105667;28;20040;-69
2022/04/12 10:44:26;;;;;;;8.30;6.40;;;;;;;13.00;28.52;95711.00;5107087;28;20426;-69
2022/04/12 10:46:52;;;;;;;11.82;10.98;;;;;;;13.03;28.62;95699.84;5106596;28;20482;-68
2022/04/12 10:49:21;;;;;;;12.50;11.63;;;;;;;13.13;28.89;95706.81;5106531;28;20382;-69
2022/04/12 10:51:56;;;;;;;9.02;7.88;;;;;;;13.15;28.38;95702.06;5107295;28;20020;-69
2022/04/12 10:54:31;;;;;;;8.65;8.05;;;;;;;13.18;27.69;95694.47;5106229;28;20032;-69
2022/04/12 10:57:32;;;;;;;13.60;12.70;;;;;;;13.29;26.86;95686.91;5105738;28;20027;-68
2022/04/12 10:59:58;;;;;;;7.78;7.07;;;;;;;13.35;27.04;95695.09;5024017;28;20025;-69
2022/04/12 11:02:28;;;;;;;8.50;7.75;;;;;;;13.39;27.16;95682.09;5089606;28;20119;-69
2022/04/12 11:04:53;;;;;;;32.90;30.73;;;;;;;13.44;28.07;95687.75;5106871;28;20351;-69
2022/04/12 11:07:35;;;;;;;11.35;10.50;;;;;;;13.57;27.42;95678.19;5105775;28;20028;-69
2022/04/12 11:10:21;;;;;;;7.55;6.85;;;;;;;13.70;26.19;95675.59;5106274;28;20028;-69
2022/04/12 11:12:47;;;;;;;5.38;3.55;;;;;;;13.72;25.46;95683.50;5105750;28;20036;-69
2022/04/12 11:15:24;;;;;;;10.38;9.48;;;;;;;13.77;26.57;95666.75;5105054;28;20100;-68
2022/04/12 11:18:01;;;;;;;4.43;4.03;;;;;;;13.77;24.91;95677.53;5106724;28;20034;-69
2022/04/12 11:20:27;;;;;;;5.70;5.20;;;;;;;13.80;24.84;95675.31;5104485;28;20115;-68
2022/04/12 11:22:56;;;;;;;3.95;3.58;;;;;;;13.90;26.70;95668.75;5104614;28;20100;-69
2022/04/12 11:25:22;;;;;;;7.57;6.07;;;;;;;14.00;25.04;95657.66;5106029;28;20024;-71
2022/04/12 11:27:57;;;;;;;7.63;6.65;;;;;;;14.06;25.09;95670.34;5106266;28;20085;-69
2022/04/12 11:30:26;;;;;;;8.25;7.75;;;;;;;14.08;24.40;95657.53;5106447;28;20198;-69
2022/04/12 11:32:55;;;;;;;7.93;7.43;;;;;;;14.10;24.81;95658.19;5105484;28;20019;-69